sensor_id;sensor_type;location;lat;lon;timestamp;pressure;altitude;pressure_sealevel;temperature;humidity
19736;BME280;32064;49.310;8.646;2022-12-18T00:01:34;101852.75;;;-2.67;70.73
19736;BME280;32064;49.310;8.646;2022-12-18T00:04:01;101849.34;;;-2.66;70.27
19736;BME280;32064;49.310;8.646;2022-12-18T00:06:29;101859.66;;;-2.64;69.66
19736;BME280;32064;49.310;8.646;2022-12-18T00:08:56;101855.38;;;-2.61;69.82
19736;BME280;32064;49.310;8.646;2022-12-18T00:11:24;101857.97;;;-2.58;69.99
19736;BME280;32064;49.310;8.646;2022-12-18T00:13:50;101861.44;;;-2.56;70.86
19736;BME280;32064;49.310;8.646;2022-12-18T00:16:21;101851.97;;;-2.55;70.32
19736;BME280;32064;49.310;8.646;2022-12-18T00:18:48;101857.16;;;-2.52;70.06
19736;BME280;32064;49.310;8.646;2022-12-18T00:21:13;101861.47;;;-2.50;70.60
19736;BME280;32064;49.310;8.646;2022-12-18T00:23:41;101863.22;;;-2.49;70.17
19736;BME280;32064;49.310;8.646;2022-12-18T00:26:15;101865.78;;;-2.52;69.80
19736;BME280;32064;49.310;8.646;2022-12-18T00:28:42;101865.78;;;-2.52;70.19
19736;BME280;32064;49.310;8.646;2022-12-18T00:31:10;101868.34;;;-2.52;69.75
19736;BME280;32064;49.310;8.646;2022-12-18T00:33:36;101860.59;;;-2.53;69.74
19736;BME280;32064;49.310;8.646;2022-12-18T00:36:03;101856.31;;;-2.54;70.33
19736;BME280;32064;49.310;8.646;2022-12-18T00:38:29;101858.03;;;-2.55;70.81
19736;BME280;32064;49.310;8.646;2022-12-18T00:40:55;101862.31;;;-2.54;70.38
19736;BME280;32064;49.310;8.646;2022-12-18T00:43:20;101865.72;;;-2.56;70.51
19736;BME280;32064;49.310;8.646;2022-12-18T00:45:46;101863.16;;;-2.53;70.41
19736;BME280;32064;49.310;8.646;2022-12-18T00:48:11;101861.47;;;-2.51;69.83
19736;BME280;32064;49.310;8.646;2022-12-18T00:50:37;101850.25;;;-2.56;69.84
19736;BME280;32064;49.310;8.646;2022-12-18T00:53:03;101859.72;;;-2.55;69.58
19736;BME280;32064;49.310;8.646;2022-12-18T00:55:28;101863.91;;;-2.68;70.27
19736;BME280;32064;49.310;8.646;2022-12-18T00:57:54;101875.81;;;-2.82;71.53
19736;BME280;32064;49.310;8.646;2022-12-18T01:00:19;101875.78;;;-2.85;71.42
19736;BME280;32064;49.310;8.646;2022-12-18T01:02:45;101878.41;;;-2.78;70.98
19736;BME280;32064;49.310;8.646;2022-12-18T01:05:11;101875.75;;;-2.87;70.98
19736;BME280;32064;49.310;8.646;2022-12-18T01:07:37;101875.84;;;-2.75;71.30
19736;BME280;32064;49.310;8.646;2022-12-18T01:10:03;101868.19;;;-2.67;70.55
19736;BME280;32064;49.310;8.646;2022-12-18T01:12:29;101870.81;;;-2.61;71.17
19736;BME280;32064;49.310;8.646;2022-12-18T01:14:54;101860.56;;;-2.56;70.54
19736;BME280;32064;49.310;8.646;2022-12-18T01:17:19;101864.03;;;-2.53;70.92
19736;BME280;32064;49.310;8.646;2022-12-18T01:19:45;101868.31;;;-2.53;70.69
19736;BME280;32064;49.310;8.646;2022-12-18T01:22:10;101870.03;;;-2.52;71.00
19736;BME280;32064;49.310;8.646;2022-12-18T01:24:36;101863.19;;;-2.52;70.79
19736;BME280;32064;49.310;8.646;2022-12-18T01:27:01;101867.50;;;-2.49;69.92
19736;BME280;32064;49.310;8.646;2022-12-18T01:29:26;101862.31;;;-2.52;70.15
19736;BME280;32064;49.310;8.646;2022-12-18T01:31:55;101864.88;;;-2.54;70.65
19736;BME280;32064;49.310;8.646;2022-12-18T01:34:20;101869.19;;;-2.51;69.84
19736;BME280;32064;49.310;8.646;2022-12-18T01:36:45;101868.34;;;-2.50;70.91
19736;BME280;32064;49.310;8.646;2022-12-18T01:39:13;101867.47;;;-2.54;70.12
19736;BME280;32064;49.310;8.646;2022-12-18T01:41:39;101865.75;;;-2.53;70.03
19736;BME280;32064;49.310;8.646;2022-12-18T01:47:15;101851.09;;;-2.62;69.83
19736;BME280;32064;49.310;8.646;2022-12-18T01:49:43;101850.25;;;-2.59;70.28
19736;BME280;32064;49.310;8.646;2022-12-18T01:52:09;101843.34;;;-2.62;70.55
19736;BME280;32064;49.310;8.646;2022-12-18T01:54:34;101858.78;;;-2.63;69.89
19736;BME280;32064;49.310;8.646;2022-12-18T01:56:59;101869.94;;;-2.64;70.09
19736;BME280;32064;49.310;8.646;2022-12-18T01:59:26;101866.50;;;-2.65;70.86
19736;BME280;32064;49.310;8.646;2022-12-18T02:01:52;101857.91;;;-2.68;70.32
19736;BME280;32064;49.310;8.646;2022-12-18T02:04:26;101868.13;;;-2.75;70.64
19736;BME280;32064;49.310;8.646;2022-12-18T02:07:05;101876.75;;;-2.74;70.43
19736;BME280;32064;49.310;8.646;2022-12-18T02:09:40;101867.31;;;-2.69;70.59
19736;BME280;32064;49.310;8.646;2022-12-18T02:14:49;101851.91;;;-2.67;70.64
19736;BME280;32064;49.310;8.646;2022-12-18T02:17:22;101850.97;;;-2.77;70.74
19736;BME280;32064;49.310;8.646;2022-12-18T02:20:15;101857.84;;;-2.76;70.47
19736;BME280;32064;49.310;8.646;2022-12-18T02:27:44;101875.72;;;-2.90;70.61
19736;BME280;32064;49.310;8.646;2022-12-18T02:30:12;101874.00;;;-2.89;71.14
19736;BME280;32064;49.310;8.646;2022-12-18T02:32:50;101878.34;;;-2.85;70.81
19736;BME280;32064;49.310;8.646;2022-12-18T02:35:22;101879.25;;;-2.80;71.25
19736;BME280;32064;49.310;8.646;2022-12-18T02:37:53;101885.31;;;-2.74;71.47
19736;BME280;32064;49.310;8.646;2022-12-18T02:40:20;101884.50;;;-2.68;71.53
19736;BME280;32064;49.310;8.646;2022-12-18T02:42:47;101885.41;;;-2.66;71.13
19736;BME280;32064;49.310;8.646;2022-12-18T02:45:12;101867.38;;;-2.64;70.42
19736;BME280;32064;49.310;8.646;2022-12-18T02:47:39;101869.09;;;-2.65;70.83
19736;BME280;32064;49.310;8.646;2022-12-18T02:50:42;101861.28;;;-2.74;70.49
19736;BME280;32064;49.310;8.646;2022-12-18T02:53:28;101850.09;;;-2.78;70.11
19736;BME280;32064;49.310;8.646;2022-12-18T03:04:16;101870.63;;;-2.85;70.89
19736;BME280;32064;49.310;8.646;2022-12-18T03:06:48;101859.53;;;-2.80;70.98
19736;BME280;32064;49.310;8.646;2022-12-18T03:09:21;101860.41;;;-2.76;70.96
19736;BME280;32064;49.310;8.646;2022-12-18T03:11:54;101868.06;;;-2.84;71.01
19736;BME280;32064;49.310;8.646;2022-12-18T03:14:40;101858.56;;;-2.89;70.89
19736;BME280;32064;49.310;8.646;2022-12-18T03:17:13;101868.88;;;-2.91;70.45
19736;BME280;32064;49.310;8.646;2022-12-18T03:19:42;101869.69;;;-2.94;70.75
19736;BME280;32064;49.310;8.646;2022-12-18T03:22:09;101859.41;;;-2.94;70.66
19736;BME280;32064;49.310;8.646;2022-12-18T03:24:36;101851.66;;;-2.97;70.43
19736;BME280;32064;49.310;8.646;2022-12-18T03:27:09;101852.47;;;-2.98;70.33
19736;BME280;32064;49.310;8.646;2022-12-18T03:29:49;101843.88;;;-3.01;69.90
19736;BME280;32064;49.310;8.646;2022-12-18T03:32:23;101857.59;;;-3.01;69.56
19736;BME280;32064;49.310;8.646;2022-12-18T03:34:53;101869.59;;;-3.04;69.80
19736;BME280;32064;49.310;8.646;2022-12-18T03:37:21;101883.16;;;-3.18;69.93
19736;BME280;32064;49.310;8.646;2022-12-18T03:39:50;101885.47;;;-3.44;71.04
19736;BME280;32064;49.310;8.646;2022-12-18T03:45:11;101870.22;;;-3.27;70.42
19736;BME280;32064;49.310;8.646;2022-12-18T03:50:37;101859.06;;;-3.26;70.22
19736;BME280;32064;49.310;8.646;2022-12-18T03:53:29;101862.47;;;-3.30;69.98
19736;BME280;32064;49.310;8.646;2022-12-18T03:55:59;101870.22;;;-3.27;69.79
19736;BME280;32064;49.310;8.646;2022-12-18T03:58:26;101866.75;;;-3.30;69.93
19736;BME280;32064;49.310;8.646;2022-12-18T04:00:56;101878.69;;;-3.35;69.57
19736;BME280;32064;49.310;8.646;2022-12-18T04:03:24;101875.03;;;-3.54;69.88
19736;BME280;32064;49.310;8.646;2022-12-18T04:05:54;101869.84;;;-3.62;70.24
19736;BME280;32064;49.310;8.646;2022-12-18T04:08:21;101868.19;;;-3.55;70.26
19736;BME280;32064;49.310;8.646;2022-12-18T04:10:47;101862.22;;;-3.51;69.88
19736;BME280;32064;49.310;8.646;2022-12-18T04:13:21;101866.53;;;-3.50;69.89
19736;BME280;32064;49.310;8.646;2022-12-18T04:15:47;101870.75;;;-3.54;69.79
19736;BME280;32064;49.310;8.646;2022-12-18T04:18:12;101870.75;;;-3.55;69.49
19736;BME280;32064;49.310;8.646;2022-12-18T04:20:38;101871.63;;;-3.55;69.78
19736;BME280;32064;49.310;8.646;2022-12-18T04:23:03;101857.88;;;-3.57;69.88
19736;BME280;32064;49.310;8.646;2022-12-18T04:25:29;101862.16;;;-3.57;69.81
19736;BME280;32064;49.310;8.646;2022-12-18T04:27:54;101863.91;;;-3.56;69.54
19736;BME280;32064;49.310;8.646;2022-12-18T04:30:19;101863.91;;;-3.55;69.27
19736;BME280;32064;49.310;8.646;2022-12-18T04:32:45;101858.75;;;-3.56;69.39
19736;BME280;32064;49.310;8.646;2022-12-18T04:35:10;101857.78;;;-3.63;69.48
19736;BME280;32064;49.310;8.646;2022-12-18T04:37:37;101849.16;;;-3.68;69.59
19736;BME280;32064;49.310;8.646;2022-12-18T04:40:02;101849.13;;;-3.73;69.66
19736;BME280;32064;49.310;8.646;2022-12-18T04:42:28;101851.59;;;-3.82;69.61
19736;BME280;32064;49.310;8.646;2022-12-18T04:44:53;101862.69;;;-3.85;69.34
19736;BME280;32064;49.310;8.646;2022-12-18T04:47:18;101847.25;;;-3.86;69.31
19736;BME280;32064;49.310;8.646;2022-12-18T04:49:44;101857.50;;;-3.88;69.15
19736;BME280;32064;49.310;8.646;2022-12-18T04:52:09;101849.75;;;-3.91;69.36
19736;BME280;32064;49.310;8.646;2022-12-18T04:54:35;101853.06;;;-3.99;69.35
19736;BME280;32064;49.310;8.646;2022-12-18T04:57:00;101849.66;;;-3.98;68.97
19736;BME280;32064;49.310;8.646;2022-12-18T04:59:25;101856.50;;;-3.99;68.86
19736;BME280;32064;49.310;8.646;2022-12-18T05:01:51;101851.31;;;-4.03;68.80
19736;BME280;32064;49.310;8.646;2022-12-18T05:04:16;101862.44;;;-4.03;68.78
19736;BME280;32064;49.310;8.646;2022-12-18T05:06:41;101855.50;;;-4.09;68.79
19736;BME280;32064;49.310;8.646;2022-12-18T05:09:07;101858.94;;;-4.08;68.78
19736;BME280;32064;49.310;8.646;2022-12-18T05:11:32;101857.25;;;-4.08;68.58
19736;BME280;32064;49.310;8.646;2022-12-18T05:13:58;101869.19;;;-4.10;68.41
19736;BME280;32064;49.310;8.646;2022-12-18T05:16:23;101886.28;;;-4.13;68.29
19736;BME280;32064;49.310;8.646;2022-12-18T05:18:48;101881.13;;;-4.15;68.57
19736;BME280;32064;49.310;8.646;2022-12-18T05:21:14;101873.31;;;-4.21;68.51
19736;BME280;32064;49.310;8.646;2022-12-18T05:23:39;101880.13;;;-4.23;68.78
19736;BME280;32064;49.310;8.646;2022-12-18T05:26:06;101880.94;;;-4.27;68.50
19736;BME280;32064;49.310;8.646;2022-12-18T05:28:34;101886.94;;;-4.26;68.74
19736;BME280;32064;49.310;8.646;2022-12-18T05:31:01;101893.75;;;-4.29;68.67
19736;BME280;32064;49.310;8.646;2022-12-18T05:33:30;101897.13;;;-4.31;68.37
19736;BME280;32064;49.310;8.646;2022-12-18T05:35:59;101890.97;;;-4.42;69.08
19736;BME280;32064;49.310;8.646;2022-12-18T05:38:29;101884.16;;;-4.40;68.16
19736;BME280;32064;49.310;8.646;2022-12-18T05:40:55;101882.50;;;-4.37;68.16
19736;BME280;32064;49.310;8.646;2022-12-18T05:43:22;101879.97;;;-4.35;67.59
19736;BME280;32064;49.310;8.646;2022-12-18T05:45:48;101870.41;;;-4.44;67.61
19736;BME280;32064;49.310;8.646;2022-12-18T05:48:14;101869.66;;;-4.38;67.90
19736;BME280;32064;49.310;8.646;2022-12-18T05:50:42;101867.91;;;-4.39;69.00
19736;BME280;32064;49.310;8.646;2022-12-18T05:53:08;101864.56;;;-4.35;69.58
19736;BME280;32064;49.310;8.646;2022-12-18T05:55:37;101853.59;;;-4.23;68.71
19736;BME280;32064;49.310;8.646;2022-12-18T05:58:04;101863.94;;;-4.17;70.19
19736;BME280;32064;49.310;8.646;2022-12-18T06:00:32;101858.69;;;-4.25;70.91
19736;BME280;32064;49.310;8.646;2022-12-18T06:02:57;101854.63;;;-4.11;70.57
19736;BME280;32064;49.310;8.646;2022-12-18T06:05:23;101856.44;;;-4.03;70.96
19736;BME280;32064;49.310;8.646;2022-12-18T06:07:48;101859.97;;;-3.95;71.37
19736;BME280;32064;49.310;8.646;2022-12-18T06:10:14;101871.06;;;-3.96;71.41
19736;BME280;32064;49.310;8.646;2022-12-18T06:12:39;101866.94;;;-3.87;72.14
19736;BME280;32064;49.310;8.646;2022-12-18T06:15:05;101876.31;;;-3.90;71.79
19736;BME280;32064;49.310;8.646;2022-12-18T06:17:32;101879.84;;;-3.84;71.70
19736;BME280;32064;49.310;8.646;2022-12-18T06:19:58;101890.84;;;-3.91;72.25
19736;BME280;32064;49.310;8.646;2022-12-18T06:22:23;101884.91;;;-3.90;72.29
19736;BME280;32064;49.310;8.646;2022-12-18T06:24:49;101893.53;;;-3.85;71.92
19736;BME280;32064;49.310;8.646;2022-12-18T06:27:15;101890.94;;;-3.86;71.82
19736;BME280;32064;49.310;8.646;2022-12-18T06:29:40;101897.00;;;-3.79;72.00
19736;BME280;32064;49.310;8.646;2022-12-18T06:32:06;101896.97;;;-3.84;72.35
19736;BME280;32064;49.310;8.646;2022-12-18T06:34:31;101908.19;;;-3.77;71.67
19736;BME280;32064;49.310;8.646;2022-12-18T06:36:58;101906.13;;;-4.03;72.69
19736;BME280;32064;49.310;8.646;2022-12-18T06:39:23;101907.97;;;-3.91;72.61
19736;BME280;32064;49.310;8.646;2022-12-18T06:41:49;101906.44;;;-3.80;72.09
19736;BME280;32064;49.310;8.646;2022-12-18T06:44:14;101899.69;;;-3.72;71.81
19736;BME280;32064;49.310;8.646;2022-12-18T06:46:40;101907.44;;;-3.70;71.85
19736;BME280;32064;49.310;8.646;2022-12-18T06:49:05;101905.72;;;-3.70;71.76
19736;BME280;32064;49.310;8.646;2022-12-18T06:51:31;101909.03;;;-3.77;72.25
19736;BME280;32064;49.310;8.646;2022-12-18T06:53:56;101910.00;;;-3.69;71.57
19736;BME280;32064;49.310;8.646;2022-12-18T06:56:22;101913.44;;;-3.68;71.05
19736;BME280;32064;49.310;8.646;2022-12-18T06:58:50;101924.59;;;-3.68;71.65
19736;BME280;32064;49.310;8.646;2022-12-18T07:01:16;101922.91;;;-3.67;71.52
19736;BME280;32064;49.310;8.646;2022-12-18T07:03:42;101917.72;;;-3.69;71.60
19736;BME280;32064;49.310;8.646;2022-12-18T07:06:15;101922.13;;;-3.60;71.27
19736;BME280;32064;49.310;8.646;2022-12-18T07:08:41;101920.31;;;-3.67;71.16
19736;BME280;32064;49.310;8.646;2022-12-18T07:11:07;101921.22;;;-3.65;71.10
19736;BME280;32064;49.310;8.646;2022-12-18T07:13:32;101930.66;;;-3.63;71.53
19736;BME280;32064;49.310;8.646;2022-12-18T07:16:17;101933.97;;;-3.73;71.38
19736;BME280;32064;49.310;8.646;2022-12-18T07:18:44;101936.72;;;-3.59;71.28
19736;BME280;32064;49.310;8.646;2022-12-18T07:21:15;101927.19;;;-3.66;71.23
19736;BME280;32064;49.310;8.646;2022-12-18T07:23:41;101938.47;;;-3.55;71.43
19736;BME280;32064;49.310;8.646;2022-12-18T07:26:09;101942.69;;;-3.60;71.75
19736;BME280;32064;49.310;8.646;2022-12-18T07:28:36;101944.47;;;-3.54;71.21
19736;BME280;32064;49.310;8.646;2022-12-18T07:31:03;101937.50;;;-3.65;71.44
19736;BME280;32064;49.310;8.646;2022-12-18T07:33:29;101943.59;;;-3.56;71.51
19736;BME280;32064;49.310;8.646;2022-12-18T07:35:54;101954.00;;;-3.46;71.23
19736;BME280;32064;49.310;8.646;2022-12-18T07:38:20;101954.94;;;-3.41;70.75
19736;BME280;32064;49.310;8.646;2022-12-18T07:40:45;101950.56;;;-3.46;70.84
19736;BME280;32064;49.310;8.646;2022-12-18T07:43:11;101956.69;;;-3.40;70.73
19736;BME280;32064;49.310;8.646;2022-12-18T07:45:36;101948.88;;;-3.47;70.69
19736;BME280;32064;49.310;8.646;2022-12-18T07:48:02;101955.84;;;-3.37;70.96
19736;BME280;32064;49.310;8.646;2022-12-18T07:50:27;101956.69;;;-3.38;71.03
19736;BME280;32064;49.310;8.646;2022-12-18T07:52:52;101951.56;;;-3.35;70.44
19736;BME280;32064;49.310;8.646;2022-12-18T07:55:18;101946.44;;;-3.36;70.54
19736;BME280;32064;49.310;8.646;2022-12-18T07:57:43;101960.22;;;-3.30;69.95
19736;BME280;32064;49.310;8.646;2022-12-18T08:00:09;101959.44;;;-3.24;70.50
19736;BME280;32064;49.310;8.646;2022-12-18T08:02:35;101960.34;;;-3.19;70.21
19736;BME280;32064;49.310;8.646;2022-12-18T08:05:00;101958.47;;;-3.32;70.71
19736;BME280;32064;49.310;8.646;2022-12-18T08:07:25;101964.66;;;-3.20;70.22
19736;BME280;32064;49.310;8.646;2022-12-18T08:09:51;101960.28;;;-3.24;70.54
19736;BME280;32064;49.310;8.646;2022-12-18T08:12:16;101962.06;;;-3.18;70.04
19736;BME280;32064;49.310;8.646;2022-12-18T08:14:42;101959.53;;;-3.17;70.14
19736;BME280;32064;49.310;8.646;2022-12-18T08:17:07;101961.25;;;-3.16;70.18
19736;BME280;32064;49.310;8.646;2022-12-18T08:19:32;101957.03;;;-3.09;70.03
19736;BME280;32064;49.310;8.646;2022-12-18T08:21:58;101954.28;;;-3.24;70.23
19736;BME280;32064;49.310;8.646;2022-12-18T08:24:23;101949.91;;;-3.33;70.77
19736;BME280;32064;49.310;8.646;2022-12-18T08:26:49;101958.53;;;-3.26;70.37
19736;BME280;32064;49.310;8.646;2022-12-18T08:29:14;101965.56;;;-3.11;69.84
19736;BME280;32064;49.310;8.646;2022-12-18T08:31:39;101957.88;;;-3.10;70.30
19736;BME280;32064;49.310;8.646;2022-12-18T08:34:05;101952.91;;;-2.96;70.08
19736;BME280;32064;49.310;8.646;2022-12-18T08:36:30;101957.22;;;-2.92;69.34
19736;BME280;32064;49.310;8.646;2022-12-18T08:38:56;101947.78;;;-2.93;69.42
19736;BME280;32064;49.310;8.646;2022-12-18T08:41:22;101946.06;;;-2.94;69.49
19736;BME280;32064;49.310;8.646;2022-12-18T08:43:48;101944.47;;;-2.83;69.83
19736;BME280;32064;49.310;8.646;2022-12-18T08:46:38;101938.44;;;-2.83;69.07
19736;BME280;32064;49.310;8.646;2022-12-18T08:49:05;101943.66;;;-2.76;68.86
19736;BME280;32064;49.310;8.646;2022-12-18T08:51:31;101929.81;;;-2.87;69.82
19736;BME280;32064;49.310;8.646;2022-12-18T08:53:56;101941.09;;;-2.76;69.55
19736;BME280;32064;49.310;8.646;2022-12-18T08:56:22;101940.22;;;-2.75;69.21
19736;BME280;32064;49.310;8.646;2022-12-18T08:58:47;101924.03;;;-2.66;69.11
19736;BME280;32064;49.310;8.646;2022-12-18T09:01:15;101912.09;;;-2.56;69.52
19736;BME280;32064;49.310;8.646;2022-12-18T09:03:41;101919.91;;;-2.45;68.82
19736;BME280;32064;49.310;8.646;2022-12-18T09:06:07;101903.63;;;-2.38;68.43
19736;BME280;32064;49.310;8.646;2022-12-18T09:08:35;101898.47;;;-2.38;69.17
19736;BME280;32064;49.310;8.646;2022-12-18T09:11:01;101893.44;;;-2.26;69.08
19736;BME280;32064;49.310;8.646;2022-12-18T09:13:27;101890.88;;;-2.18;68.19
19736;BME280;32064;49.310;8.646;2022-12-18T09:15:54;101893.56;;;-2.06;67.92
19736;BME280;32064;49.310;8.646;2022-12-18T09:18:21;101894.50;;;-1.95;69.10
19736;BME280;32064;49.310;8.646;2022-12-18T09:20:47;101894.56;;;-1.79;67.92
19736;BME280;32064;49.310;8.646;2022-12-18T09:23:12;101901.44;;;-1.77;69.00
19736;BME280;32064;49.310;8.646;2022-12-18T09:25:38;101885.31;;;-1.28;67.94
19736;BME280;32064;49.310;8.646;2022-12-18T09:28:11;101893.97;;;-0.07;65.57
19736;BME280;32064;49.310;8.646;2022-12-18T09:30:38;101889.38;;;0.80;63.15
19736;BME280;32064;49.310;8.646;2022-12-18T09:33:04;101888.47;;;1.92;61.15
19736;BME280;32064;49.310;8.646;2022-12-18T09:35:29;101896.94;;;2.83;60.16
19736;BME280;32064;49.310;8.646;2022-12-18T09:37:54;101900.19;;;3.53;58.18
19736;BME280;32064;49.310;8.646;2022-12-18T09:40:23;101910.84;;;3.91;55.77
19736;BME280;32064;49.310;8.646;2022-12-18T09:42:57;101930.50;;;4.54;54.01
19736;BME280;32064;49.310;8.646;2022-12-18T09:45:24;101923.91;;;4.78;53.56
19736;BME280;32064;49.310;8.646;2022-12-18T09:47:52;101918.22;;;5.36;53.89
19736;BME280;32064;49.310;8.646;2022-12-18T09:50:29;101912.59;;;5.53;53.55
19736;BME280;32064;49.310;8.646;2022-12-18T09:52:59;101920.88;;;6.05;53.47
19736;BME280;32064;49.310;8.646;2022-12-18T09:55:37;101943.53;;;5.69;50.10
19736;BME280;32064;49.310;8.646;2022-12-18T09:58:14;101952.28;;;6.36;50.67
19736;BME280;32064;49.310;8.646;2022-12-18T10:00:42;101951.88;;;5.83;51.76
19736;BME280;32064;49.310;8.646;2022-12-18T10:03:13;101959.41;;;4.40;53.95
19736;BME280;32064;49.310;8.646;2022-12-18T10:08:33;101955.72;;;2.90;55.97
19736;BME280;32064;49.310;8.646;2022-12-18T10:12:01;101953.19;;;2.10;56.66
19736;BME280;32064;49.310;8.646;2022-12-18T10:14:07;101949.31;;;1.57;56.43
19736;BME280;32064;49.310;8.646;2022-12-18T10:17:02;101921.03;;;1.28;57.61
19736;BME280;32064;49.310;8.646;2022-12-18T10:19:56;101935.94;;;0.86;58.40
19736;BME280;32064;49.310;8.646;2022-12-18T10:22:47;101941.91;;;1.00;58.33
19736;BME280;32064;49.310;8.646;2022-12-18T10:27:43;101950.66;;;0.78;59.34
19736;BME280;32064;49.310;8.646;2022-12-18T10:30:20;101952.41;;;0.65;59.32
19736;BME280;32064;49.310;8.646;2022-12-18T10:32:46;101955.94;;;0.50;59.29
19736;BME280;32064;49.310;8.646;2022-12-18T10:35:26;101946.47;;;0.41;59.38
19736;BME280;32064;49.310;8.646;2022-12-18T10:38:06;101948.19;;;0.44;60.52
19736;BME280;32064;49.310;8.646;2022-12-18T10:40:47;101937.81;;;0.52;59.85
19736;BME280;32064;49.310;8.646;2022-12-18T10:43:14;101930.03;;;0.55;60.46
19736;BME280;32064;49.310;8.646;2022-12-18T10:45:41;101936.09;;;0.51;60.54
19736;BME280;32064;49.310;8.646;2022-12-18T10:48:21;101926.59;;;0.54;61.19
19736;BME280;32064;49.310;8.646;2022-12-18T10:50:51;101908.47;;;0.48;60.86
19736;BME280;32064;49.310;8.646;2022-12-18T10:53:28;101904.94;;;0.67;61.27
19736;BME280;32064;49.310;8.646;2022-12-18T10:55:57;101913.66;;;0.48;60.44
19736;BME280;32064;49.310;8.646;2022-12-18T10:58:29;101910.16;;;0.61;60.65
19736;BME280;32064;49.310;8.646;2022-12-18T11:06:07;101923.94;;;0.66;61.06
19736;BME280;32064;49.310;8.646;2022-12-18T11:08:33;101924.06;;;0.40;61.23
19736;BME280;32064;49.310;8.646;2022-12-18T11:10:59;101923.03;;;0.75;61.48
19736;BME280;32064;49.310;8.646;2022-12-18T11:13:26;101921.25;;;0.89;60.47
19736;BME280;32064;49.310;8.646;2022-12-18T11:15:53;101915.31;;;0.69;61.35
19736;BME280;32064;49.310;8.646;2022-12-18T11:18:24;101929.19;;;0.51;60.78
19736;BME280;32064;49.310;8.646;2022-12-18T11:20:53;101933.44;;;0.64;61.45
19736;BME280;32064;49.310;8.646;2022-12-18T11:23:21;101932.66;;;0.42;61.37
19736;BME280;32064;49.310;8.646;2022-12-18T11:25:54;101924.00;;;0.56;62.36
19736;BME280;32064;49.310;8.646;2022-12-18T11:28:39;101920.59;;;0.41;62.28
19736;BME280;32064;49.310;8.646;2022-12-18T11:31:32;101923.13;;;0.60;61.02
19736;BME280;32064;49.310;8.646;2022-12-18T11:36:29;101922.13;;;0.87;60.94
19736;BME280;32064;49.310;8.646;2022-12-18T11:39:00;101921.19;;;1.00;61.85
19736;BME280;32064;49.310;8.646;2022-12-18T11:41:34;101911.69;;;0.98;61.84
19736;BME280;32064;49.310;8.646;2022-12-18T11:47:19;101919.34;;;1.19;60.99
19736;BME280;32064;49.310;8.646;2022-12-18T11:49:49;101919.41;;;1.11;61.33
19736;BME280;32064;49.310;8.646;2022-12-18T11:54:40;101903.75;;;1.24;60.95
19736;BME280;32064;49.310;8.646;2022-12-18T11:57:18;101894.28;;;1.20;61.07
19736;BME280;32064;49.310;8.646;2022-12-18T11:59:58;101877.75;;;1.33;61.68
19736;BME280;32064;49.310;8.646;2022-12-18T12:06:01;101889.75;;;1.46;61.41
19736;BME280;32064;49.310;8.646;2022-12-18T12:14:47;101896.50;;;1.70;61.32
19736;BME280;32064;49.310;8.646;2022-12-18T12:17:41;101886.94;;;1.72;61.51
19736;BME280;32064;49.310;8.646;2022-12-18T12:20:21;101887.78;;;1.76;61.00
19736;BME280;32064;49.310;8.646;2022-12-18T12:34:26;101866.94;;;1.84;61.63
19736;BME280;32064;49.310;8.646;2022-12-18T12:39:40;101866.13;;;1.82;61.32
19736;BME280;32064;49.310;8.646;2022-12-18T12:42:22;101872.13;;;1.85;61.59
19736;BME280;32064;49.310;8.646;2022-12-18T12:45:15;101874.72;;;1.85;61.60
19736;BME280;32064;49.310;8.646;2022-12-18T12:47:43;101871.25;;;1.88;61.86
19736;BME280;32064;49.310;8.646;2022-12-18T12:50:16;101868.66;;;1.88;62.13
19736;BME280;32064;49.310;8.646;2022-12-18T12:52:46;101865.19;;;1.87;61.61
19736;BME280;32064;49.310;8.646;2022-12-18T12:55:17;101864.28;;;1.93;61.70
19736;BME280;32064;49.310;8.646;2022-12-18T12:58:11;101862.84;;;1.61;61.46
19736;BME280;32064;49.310;8.646;2022-12-18T13:00:46;101862.59;;;1.86;61.23
19736;BME280;32064;49.310;8.646;2022-12-18T13:03:41;101853.91;;;1.91;61.80
19736;BME280;32064;49.310;8.646;2022-12-18T13:06:16;101849.66;;;1.81;61.88
19736;BME280;32064;49.310;8.646;2022-12-18T13:08:56;101847.06;;;1.81;61.31
19736;BME280;32064;49.310;8.646;2022-12-18T13:11:40;101845.38;;;1.82;61.49
19736;BME280;32064;49.310;8.646;2022-12-18T13:14:33;101835.84;;;1.82;62.07
19736;BME280;32064;49.310;8.646;2022-12-18T13:20:06;101822.97;;;1.70;62.15
19736;BME280;32064;49.310;8.646;2022-12-18T13:22:43;101820.41;;;1.68;62.27
19736;BME280;32064;49.310;8.646;2022-12-18T13:25:30;101820.50;;;1.62;62.10
19736;BME280;32064;49.310;8.646;2022-12-18T13:28:12;101811.13;;;1.44;62.02
19736;BME280;32064;49.310;8.646;2022-12-18T13:31:01;101811.06;;;1.53;62.96
19736;BME280;32064;49.310;8.646;2022-12-18T13:33:37;101808.38;;;1.61;62.65
19736;BME280;32064;49.310;8.646;2022-12-18T13:36:12;101808.34;;;1.64;62.57
19736;BME280;32064;49.310;8.646;2022-12-18T13:38:39;101816.16;;;1.61;63.24
19736;BME280;32064;49.310;8.646;2022-12-18T13:43:45;101804.84;;;1.67;62.66
19736;BME280;32064;49.310;8.646;2022-12-18T13:46:24;101803.97;;;1.69;62.71
19736;BME280;32064;49.310;8.646;2022-12-18T13:51:22;101798.88;;;1.62;62.97
19736;BME280;32064;49.310;8.646;2022-12-18T13:56:23;101793.72;;;1.55;63.30
19736;BME280;32064;49.310;8.646;2022-12-18T13:59:12;101798.09;;;1.52;63.06
19736;BME280;32064;49.310;8.646;2022-12-18T14:01:47;101801.56;;;1.49;63.19
19736;BME280;32064;49.310;8.646;2022-12-18T14:04:27;101800.00;;;1.36;63.07
19736;BME280;32064;49.310;8.646;2022-12-18T14:07:18;101810.41;;;1.30;63.84
19736;BME280;32064;49.310;8.646;2022-12-18T14:09:43;101804.41;;;1.25;63.27
19736;BME280;32064;49.310;8.646;2022-12-18T14:12:29;101815.66;;;1.21;63.36
19736;BME280;32064;49.310;8.646;2022-12-18T14:15:24;101817.34;;;1.28;63.55
19736;BME280;32064;49.310;8.646;2022-12-18T14:17:56;101824.41;;;1.09;64.41
19736;BME280;32064;49.310;8.646;2022-12-18T14:20:24;101821.84;;;1.04;64.74
19736;BME280;32064;49.310;8.646;2022-12-18T14:22:50;101804.44;;;1.19;64.50
19736;BME280;32064;49.310;8.646;2022-12-18T14:25:27;101795.03;;;1.11;63.96